Latest Coastal Weather Observations for Cape Borda

IDT60701

Issued at 7:32 pm EST Wednesday 6 May 2026 (issued every 10 minutes, with the page automatically refreshed every 10 minutes)

About coastal observations | Map of coastal stations | Coastal observations for TAS | Marine services | Other Formats
Station Details ID: 022823 Name: CAPE BORDA Lat: -35.75 Lon: 136.60 Height: 158.0 m
Data from the previous 72 hours. | See also: Recent months at Cape Borda
Date/Time
EST
Wind Sea
Height
m
Swell Vis
km
Cloud Weather Temp
°C
Press
MSL
hPa
Rain since
9am
mm
Dir  Spd
kts
Gust
kts
Height
m
Period
s
Dir
06/07:30pm S 15 21 - - - - - - - 12.5 1026.0 0.6
06/07:00pm S 15 22 - - - - - - - 12.5 1025.6 0.6
06/06:30pm S 16 22 - - - - - - - 12.6 1025.0 0.6
06/06:00pm SSW 15 21 - - - - - - - 12.6 1024.7 0.6
06/05:30pm SSW 18 25 - - - - - - - 12.9 1024.4 0.6
06/05:00pm SSW 18 25 - - - - - - - 13.7 1023.9 0.6
06/04:43pm SSW 17 27 - - - - - - - 13.8 1023.8 0.6
06/04:30pm SSW 18 26 - - - - - - - 13.8 1023.6 0.6
06/04:04pm SSW 19 29 - - - - - - - 13.7 1023.4 0.6
06/04:00pm SSW 20 27 - - - - - - - 13.6 1023.4 0.6
06/03:30pm S 17 22 - - - - - - Recent precip. 13.1 1023.1 0.6
06/03:00pm SSW 17 26 - - - - - - - 13.2 1022.7 0.4
06/02:42pm SSW 17 27 - - - - - - - 14.5 1022.5 0.0
06/02:30pm SSW 19 26 - - - - - - - 14.1 1022.5 0.0
06/02:00pm SW 16 21 - - - - - - - 16.9 1022.5 0.0
06/01:30pm SW 17 23 - - - - - - - 16.4 1022.6 0.0
06/01:00pm SW 15 21 - - - - - - - 15.6 1022.9 0.0
06/12:30pm SW 15 21 - - - - - - - 16.6 1023.1 0.0
06/12:00pm SW 16 21 - - - - - - - 16.7 1023.3 0.0
06/11:30am SW 17 23 - - - - - - - 16.4 1023.4 0.0
06/11:00am SW 15 21 - - - - - - - 16.0 1023.2 0.0
06/10:30am SW 16 23 - - - - - - - 15.8 1023.2 0.0
06/10:00am SW 16 22 - - - - - - - 15.8 1023.1 0.0
06/09:30am SW 15 23 - - - - - - - 14.8 1023.0 1.8
06/09:00am SW 14 21 - - - - - - - 14.3 1022.7 1.8
06/08:30am SW 11 19 - - - - - - - 13.8 1022.4 1.8
06/08:00am SW 15 21 - - - - - - - 13.0 1022.2 1.8
06/07:30am SW 12 17 - - - - - - - 13.6 1022.1 1.4
06/07:00am W 11 20 - - - - - - - 14.2 1022.0 1.0
06/06:32am W 15 25 - - - - - - - 14.0 1021.9 1.0
06/06:30am W 14 25 - - - - - - Rain 14.2 1021.9 1.0
06/06:00am WSW 13 19 - - - - - - - 14.2 1021.9 0.8
06/05:30am W 12 17 - - - - - - - 14.4 1021.9 0.8
06/05:00am WSW 8 11 - - - - - - - 13.9 1021.8 0.8
06/04:30am W 9 13 - - - - - - - 14.3 1021.7 0.8
06/04:00am W 11 16 - - - - - - - 13.7 1022.0 0.8
06/03:30am WNW 9 11 - - - - - - - 13.8 1022.1 0.6
06/03:00am NW 7 9 - - - - - - - 13.6 1022.3 0.6
06/02:30am WNW 11 16 - - - - - - - 13.9 1022.5 0.6
06/02:00am W 8 14 - - - - - - - 13.7 1022.7 0.6
06/01:30am SW 6 7 - - - - - - - 13.3 1022.8 0.6
06/01:00am W 7 11 - - - - - - - 13.7 1022.9 0.6
06/12:30am W 8 14 - - - - - - Recent precip. 13.8 1023.1 0.6
06/12:00am WSW 8 13 - - - - - - - 13.9 1023.3 0.6
 
Date/Time
EST
Wind Sea
Height
m
Swell Vis
km
Cloud Weather Temp
°C
Press
MSL
hPa
Rain since
9am
mm
Dir  Spd
kts
Gust
kts
Height
m
Period
s
Dir
05/11:30pm W 9 16 - - - - - - - 14.0 1023.7 0.2
05/11:00pm WSW 4 5 - - - - - - - 13.7 1023.8 0.0
05/10:30pm WSW 6 10 - - - - - - - 13.9 1023.9 0.0
05/10:00pm WSW 7 10 - - - - - - - 14.0 1023.9 0.0
05/09:30pm W 7 11 - - - - - - - 14.0 1023.9 0.0
05/09:00pm WSW 8 12 - - - - - - - 14.1 1023.8 0.0
05/08:30pm NW 4 5 - - - - - - - 13.7 1023.8 0.0
05/08:00pm NW 4 6 - - - - - - - 13.8 1023.9 0.0
05/07:30pm W 7 11 - - - - - - - 14.2 1023.9 0.0
05/07:00pm W 9 12 - - - - - - - 14.3 1023.7 0.0
05/06:30pm SW 6 10 - - - - - - - 13.7 1023.3 0.0
05/06:00pm W 5 6 - - - - - - - 13.8 1023.1 0.0
05/05:30pm WNW 3 5 - - - - - - - 14.5 1023.1 0.0
05/05:00pm W 9 13 - - - - - - - 14.8 1023.1 0.0
05/04:30pm W 7 10 - - - - - - - 15.7 1023.0 0.0
05/04:00pm W 7 10 - - - - - - - 16.3 1022.9 0.0
05/03:30pm W 8 11 - - - - - - - 16.8 1022.8 0.0
05/03:00pm W 7 9 - - - - - - - 16.8 1022.8 0.0
05/02:30pm W 8 11 - - - - - - - 16.5 1022.8 0.0
05/02:00pm W 7 11 - - - - - - - 15.8 1023.1 0.0
05/01:30pm WSW 7 9 - - - - - - - 16.1 1023.3 0.0
05/01:00pm W 6 7 - - - - - - - 15.9 1023.6 0.0
05/12:30pm SSW 7 11 - - - - - - - 15.5 1023.9 0.0
05/12:00pm SW 9 13 - - - - - - - 15.6 1024.1 0.0
05/11:30am SSW 9 12 - - - - - - - 15.5 1024.0 0.0
05/11:00am SW 11 14 - - - - - - - 15.8 1023.8 0.0
05/10:30am SW 9 12 - - - - - - - 15.2 1023.7 0.0
05/10:00am WSW 7 10 - - - - - - - 14.7 1023.6 0.0
05/09:30am S 4 5 - - - - - - - 13.6 1023.3 0.8
05/09:00am S 4 5 - - - - - - - 12.9 1023.1 0.8
05/08:30am S 6 6 - - - - - - - 12.1 1022.7 0.8
05/08:00am S 6 7 - - - - - - - 11.6 1022.3 0.8
05/07:30am SSW 8 10 - - - - - - - 12.0 1022.2 0.8
05/07:00am SSW 7 8 - - - - - - - 10.9 1021.8 0.8
05/06:30am S 8 10 - - - - - - - 11.4 1021.6 0.6
05/06:00am SSW 11 16 - - - - - - - 12.2 1021.5 0.6
05/05:30am S 8 11 - - - - - - - 12.2 1021.4 0.6
05/05:00am S 7 10 - - - - - - - 12.8 1021.2 0.6
05/04:30am S 7 8 - - - - - - - 12.9 1021.1 0.6
05/04:00am S 8 12 - - - - - - - 12.8 1021.1 0.6
05/03:30am SSW 10 16 - - - - - - - 12.9 1021.0 0.6
05/03:00am S 7 10 - - - - - - - 12.2 1021.0 0.6
05/02:30am SSW 12 17 - - - - - - - 12.2 1021.0 0.6
05/02:00am SSW 10 16 - - - - - - - 12.6 1021.1 0.6
05/01:30am SW 12 16 - - - - - - - 12.7 1021.2 0.6
05/01:00am SW 11 16 - - - - - - - 12.8 1021.0 0.6
05/12:30am SW 13 19 - - - - - - - 12.8 1020.8 0.6
05/12:00am SSW 12 18 - - - - - - - 12.6 1020.7 0.6
 
Date/Time
EST
Wind Sea
Height
m
Swell Vis
km
Cloud Weather Temp
°C
Press
MSL
hPa
Rain since
9am
mm
Dir  Spd
kts
Gust
kts
Height
m
Period
s
Dir
04/11:30pm SW 12 16 - - - - - - - 12.6 1020.8 0.6
04/11:00pm SSW 13 19 - - - - - - - 12.3 1020.7 0.6
04/10:30pm SSW 12 18 - - - - - - - 12.3 1020.5 0.6
04/10:00pm SSW 12 19 - - - - - - - 12.9 1020.2 0.4
04/09:30pm SSW 11 17 - - - - - - - 12.6 1019.8 0.4
04/09:00pm SSW 10 14 - - - - - - - 12.5 1019.5 0.4
04/08:30pm SSW 10 16 - - - - - - - 13.1 1019.3 0.4
04/08:00pm SSW 12 16 - - - - - - - 12.7 1019.0 0.4
04/07:30pm SSW 13 19 - - - - - - - 13.0 1018.5 0.4
04/07:00pm SSW 11 16 - - - - - - - 12.9 1017.9 0.4
04/06:30pm SSW 13 22 - - - - - - - 13.4 1017.4 0.2
04/06:00pm SW 14 19 - - - - - - - 13.8 1017.1 0.2
04/05:30pm SW 12 18 - - - - - - - 14.5 1016.7 0.2
04/05:00pm SW 13 21 - - - - - - - 15.2 1016.5 0.2
04/04:30pm SW 14 21 - - - - - - - 15.6 1016.3 0.2
04/04:00pm SW 16 20 - - - - - - - 16.0 1016.0 0.2
04/03:30pm SW 16 22 - - - - - - - 16.3 1015.5 0.2
04/03:00pm SW 16 22 - - - - - - - 15.6 1015.3 0.2
04/02:30pm SW 17 22 - - - - - - - 16.3 1015.1 0.2
04/02:00pm SW 15 22 - - - - - - - 16.3 1015.0 0.2
04/01:30pm SW 15 21 - - - - - - - 16.7 1015.0 0.0
04/01:00pm SW 15 19 - - - - - - - 16.4 1015.1 0.0
04/12:30pm SW 16 21 - - - - - - - 15.9 1015.3 0.0
04/12:08pm SW 15 25 - - - - - - - 15.8 1015.3 0.0
04/12:00pm SW 15 22 - - - - - - - 16.2 1015.3 0.0
04/11:30am SW 15 21 - - - - - - - 16.2 1015.1 0.0
04/11:00am SW 16 22 - - - - - - - 16.1 1015.0 0.0
04/10:30am SW 17 23 - - - - - - - 15.6 1014.6 0.0
04/10:00am SW 15 22 - - - - - - - 14.8 1014.4 0.0
04/09:30am SW 17 24 - - - - - - Recent precip. 15.1 1014.1 7.8
04/09:00am SW 19 26 - - - - - - - 14.5 1013.6 7.6
04/08:30am SW 18 23 - - - - - - - 14.5 1013.0 7.6
04/08:00am SW 17 24 - - - - - - - 14.2 1012.3 7.6
04/07:30am SW 17 26 - - - - - - - 13.8 1011.8 7.6
04/07:00am SW 17 24 - - - - - - - 14.2 1011.4 7.6
04/06:30am SW 17 25 - - - - - - Recent precip. 13.5 1011.1 7.6
04/06:00am SW 18 28 - - - - - - - 13.5 1010.8 7.6
04/05:30am SW 19 29 - - - - - - - 13.4 1010.5 7.2
04/05:18am SW 19 30 - - - - - - - 14.4 1010.2 7.2
04/05:00am SW 21 27 - - - - - - - 14.2 1010.2 7.2
04/04:45am SW 19 29 - - - - - - - 14.0 1009.9 7.2
04/04:30am SW 19 26 - - - - - - - 14.0 1009.8 7.2
04/04:07am SW 18 28 - - - - - - - 13.7 1009.7 7.2
04/04:00am SW 16 24 - - - - - - - 13.8 1009.5 7.2
04/03:30am SW 18 27 - - - - - - Rain 13.5 1009.7 7.2
04/03:00am SW 18 26 - - - - - - - 13.5 1009.6 6.8
04/02:30am SW 17 27 - - - - - - - 13.4 1009.5 6.6
04/02:27am WSW 17 27 - - - - - - - 13.2 1009.5 6.6
04/02:00am WSW 17 25 - - - - - - - 13.2 1009.3 6.4
04/01:30am WSW 19 31 - - - - - - - 13.2 1009.1 5.8
04/01:00am WSW 21 31 - - - - - - - 13.4 1009.2 5.6
04/12:30am WSW 20 31 - - - - - - Recent precip. 13.7 1008.9 5.4
04/12:00am W 23 34 - - - - - - - 12.9 1009.1 5.0
 
Date/Time
EST
Wind Sea
Height
m
Swell Vis
km
Cloud Weather Temp
°C
Press
MSL
hPa
Rain since
9am
mm
Dir  Spd
kts
Gust
kts
Height
m
Period
s
Dir
03/11:31pm W 19 29 - - - - - - - 14.4 1009.2 4.8
03/11:30pm W 20 29 - - - - - - - 14.3 1009.2 4.8
03/11:01pm W 21 31 - - - - - - - 14.6 1009.2 4.8
03/11:00pm W 20 29 - - - - - - - 14.6 1009.2 4.8
03/10:30pm W 20 30 - - - - - - - 14.8 1009.2 4.8
03/10:29pm W 20 30 - - - - - - - 14.7 1009.2 4.8
03/10:00pm W 21 29 - - - - - - - 14.4 1008.9 4.8
03/09:30pm W 21 31 - - - - - - - 13.6 1008.8 4.8
03/09:26pm W 20 31 - - - - - - - 14.0 1008.7 4.8
03/09:00pm W 18 26 - - - - - - - 13.5 1008.6 4.8
03/08:36pm WNW 20 30 - - - - - - - 13.1 1008.6 4.8
03/08:30pm WNW 20 27 - - - - - - - 13.0 1008.6 4.8
03/08:10pm W 21 33 - - - - - - - 13.6 1008.6 4.0
03/08:00pm WNW 22 30 - - - - - - - 13.4 1008.4 4.0
03/07:41pm WNW 22 33 - - - - - - - 13.2 1008.2 3.8

Other formats

Comma delimited format used in spreadsheet applications
http://www.bom.gov.au/fwo/IDT60701/IDT60701.95805.axf

JavaScript Object Notation format (JSON) in row-major order
http://www.bom.gov.au/fwo/IDT60701/IDT60701.95805.json

Data quality

Most of these data are generated automatically and are frequently updated. Quality checks on data are not normally performed. It is possible for incorrect values to appear. Refer to information at About Latest Weather Observations and please check the disclaimer before using these data.